createdAt,value
2018-02-17T00:00:17.636Z,-0.50
2018-02-17T00:02:45.856Z,-0.50
2018-02-17T00:05:14.895Z,-0.30
2018-02-17T00:07:43.406Z,-0.40
2018-02-17T00:10:12.426Z,-0.40
2018-02-17T00:12:41.469Z,-0.40
2018-02-17T00:15:10.449Z,-0.40
2018-02-17T00:17:38.709Z,-0.40
2018-02-17T00:20:07.725Z,-0.30
2018-02-17T00:22:35.962Z,-0.30
2018-02-17T00:25:05.002Z,-0.20
2018-02-17T00:27:33.389Z,-0.20
2018-02-17T00:30:01.581Z,-0.20
2018-02-17T00:32:29.786Z,-0.30
2018-02-17T00:34:58.084Z,-0.20
2018-02-17T00:37:27.070Z,-0.30
2018-02-17T00:39:56.090Z,-0.20
2018-02-17T00:42:25.081Z,-0.20
2018-02-17T00:44:53.417Z,-0.20
2018-02-17T00:47:21.783Z,-0.10
2018-02-17T00:49:50.053Z,-0.20
2018-02-17T00:52:18.276Z,-0.20
2018-02-17T00:54:47.297Z,-0.20
2018-02-17T00:57:15.602Z,-0.20
2018-02-17T00:59:43.922Z,-0.10
2018-02-17T01:02:12.917Z,-0.10
2018-02-17T01:04:42.036Z,-0.10
2018-02-17T01:07:11.030Z,-0.30
2018-02-17T01:09:40.013Z,-0.40
2018-02-17T01:12:09.025Z,-0.30
2018-02-17T01:14:37.232Z,-0.30
2018-02-17T01:17:05.474Z,-0.30
2018-02-17T01:19:33.953Z,-0.20
2018-02-17T01:22:02.156Z,-0.20
2018-02-17T01:24:30.390Z,-0.30
2018-02-17T01:27:01.863Z,0.00
2018-02-17T01:29:30.848Z,-0.10
2018-02-17T01:31:59.817Z,-0.10
2018-02-17T01:34:28.059Z,-0.10
2018-02-17T01:36:56.257Z,-0.10
2018-02-17T01:39:24.456Z,-0.20
2018-02-17T01:41:53.485Z,-0.10
2018-02-17T01:44:21.704Z,-0.10
2018-02-17T01:46:49.901Z,0.10
2018-02-17T01:49:18.909Z,0.00
2018-02-17T01:51:47.868Z,-0.20
2018-02-17T01:54:16.120Z,-0.20
2018-02-17T01:56:44.349Z,-0.30
2018-02-17T01:59:13.341Z,-0.30
2018-02-17T02:01:42.318Z,-0.40
2018-02-17T02:04:10.552Z,-0.40
2018-02-17T02:06:38.772Z,-0.50
2018-02-17T02:09:07.763Z,-0.40
2018-02-17T02:11:36.039Z,-0.40
2018-02-17T02:14:04.240Z,-0.40
2018-02-17T02:16:32.523Z,-0.50
2018-02-17T02:19:00.844Z,-0.60
2018-02-17T02:21:29.156Z,-0.60
2018-02-17T02:23:58.153Z,-0.60
2018-02-17T02:26:27.208Z,-0.50
2018-02-17T02:28:55.637Z,-0.60
2018-02-17T02:31:24.603Z,-0.30
2018-02-17T02:33:52.881Z,-0.30
2018-02-17T02:36:21.062Z,-0.50
2018-02-17T02:38:50.058Z,-0.60
2018-02-17T02:41:19.123Z,-0.50
2018-02-17T02:43:47.448Z,-0.50
2018-02-17T02:46:16.412Z,-0.40
2018-02-17T02:48:45.500Z,-0.40
2018-02-17T02:51:13.762Z,-0.40
2018-02-17T02:53:41.977Z,-0.50
2018-02-17T02:56:10.982Z,-0.50
2018-02-17T02:58:39.237Z,-0.60
2018-02-17T03:01:07.421Z,-0.50
2018-02-17T03:03:36.427Z,-0.60
2018-02-17T03:06:05.421Z,-0.60
2018-02-17T03:08:34.381Z,-0.50
2018-02-17T03:11:02.760Z,-0.60
2018-02-17T03:13:31.312Z,-0.60
2018-02-17T03:15:59.618Z,-0.60
2018-02-17T03:18:27.904Z,-0.60
2018-02-17T03:20:56.084Z,-0.60
2018-02-17T03:23:25.091Z,-0.60
2018-02-17T03:25:54.270Z,-0.70
2018-02-17T03:28:22.539Z,-0.70
2018-02-17T03:30:52.015Z,-0.70
2018-02-17T03:33:20.397Z,-0.90
2018-02-17T03:35:48.638Z,-0.80
2018-02-17T03:38:17.608Z,-0.90
2018-02-17T03:40:45.879Z,-0.90
2018-02-17T03:43:14.125Z,-0.90
2018-02-17T03:45:42.329Z,-0.90
2018-02-17T03:48:10.553Z,-1.10
2018-02-17T03:50:38.774Z,-1.10
2018-02-17T03:53:07.001Z,-1.10
2018-02-17T03:55:35.353Z,-1.10
2018-02-17T03:58:03.568Z,-1.10
2018-02-17T04:00:32.703Z,-1.10
2018-02-17T04:03:01.024Z,-1.10
2018-02-17T04:05:29.269Z,-1.10
2018-02-17T04:07:58.242Z,-1.20
2018-02-17T04:10:26.542Z,-1.30
2018-02-17T04:12:54.757Z,-1.30
2018-02-17T04:15:22.953Z,-1.20
2018-02-17T04:17:51.185Z,-1.10
2018-02-17T04:20:19.409Z,-1.20
2018-02-17T04:22:47.601Z,-1.30
2018-02-17T04:25:16.588Z,-1.20
2018-02-17T04:27:45.577Z,-1.10
2018-02-17T04:30:13.776Z,-1.10
2018-02-17T04:32:42.002Z,-0.90
2018-02-17T04:35:10.306Z,-1.00
2018-02-17T04:37:38.515Z,-0.90
2018-02-17T04:43:11.543Z,-1.20
2018-02-17T04:45:40.648Z,-1.30
2018-02-17T04:48:11.473Z,-1.30
2018-02-17T04:50:39.678Z,-1.40
2018-02-17T04:53:13.588Z,-1.30
2018-02-17T04:55:57.635Z,-1.30
2018-02-17T04:58:42.565Z,-1.30
2018-02-17T05:01:11.558Z,-1.20
2018-02-17T05:03:49.899Z,-1.20
2018-02-17T05:06:20.532Z,-1.20
2018-02-17T05:08:51.585Z,-1.10
2018-02-17T05:11:19.780Z,-1.20
2018-02-17T05:13:48.748Z,-1.10
2018-02-17T05:16:30.892Z,-1.10
2018-02-17T05:19:03.669Z,-1.10
2018-02-17T05:21:32.358Z,-1.30
2018-02-17T05:24:03.135Z,-1.30
2018-02-17T05:26:33.018Z,-1.40
2018-02-17T05:32:02.360Z,-1.30
2018-02-17T05:34:34.189Z,-1.20
2018-02-17T05:37:02.384Z,-1.30
2018-02-17T05:39:43.308Z,-1.30
2018-02-17T05:42:12.300Z,-1.40
2018-02-17T05:44:45.240Z,-1.40
2018-02-17T05:47:30.182Z,-1.40
2018-02-17T05:50:04.610Z,-1.40
2018-02-17T05:52:32.871Z,-1.40
2018-02-17T05:55:01.153Z,-1.30
2018-02-17T05:57:29.549Z,-1.20
2018-02-17T05:59:57.794Z,-1.20
2018-02-17T06:02:26.070Z,-1.30
2018-02-17T06:04:54.341Z,-1.30
2018-02-17T06:07:23.331Z,-1.20
2018-02-17T06:09:52.448Z,-1.40
2018-02-17T06:12:21.930Z,-1.40
2018-02-17T06:14:50.900Z,-1.50
2018-02-17T06:17:19.108Z,-1.50
2018-02-17T06:19:47.421Z,-1.50
2018-02-17T06:22:15.626Z,-1.30
2018-02-17T06:24:43.897Z,-1.30
2018-02-17T06:27:12.110Z,-1.60
2018-02-17T06:29:40.391Z,-1.40
2018-02-17T06:32:08.602Z,-1.40
2018-02-17T06:34:36.868Z,-1.40
2018-02-17T06:37:05.081Z,-1.40
2018-02-17T06:39:33.281Z,-1.30
2018-02-17T06:42:02.340Z,-1.30
2018-02-17T06:44:30.589Z,-1.30
2018-02-17T06:46:58.820Z,-1.40
2018-02-17T06:49:28.024Z,-1.30
2018-02-17T06:51:57.017Z,-1.30
2018-02-17T06:54:25.997Z,-1.30
2018-02-17T06:56:55.228Z,-1.40
2018-02-17T06:59:23.441Z,-1.40
2018-02-17T07:01:51.689Z,-1.30
2018-02-17T07:04:20.077Z,-1.30
2018-02-17T07:06:48.344Z,-1.30
2018-02-17T07:09:16.572Z,-1.30
2018-02-17T07:11:44.789Z,-1.30
2018-02-17T07:14:12.994Z,-1.30
2018-02-17T07:16:41.213Z,-1.30
2018-02-17T07:19:09.500Z,-1.20
2018-02-17T07:21:37.706Z,-1.20
2018-02-17T07:24:06.292Z,-1.20
2018-02-17T07:26:34.522Z,-1.10
2018-02-17T07:29:03.524Z,-1.10
2018-02-17T07:31:31.721Z,-1.10
2018-02-17T07:33:59.960Z,-1.20
2018-02-17T07:36:30.132Z,-1.30
2018-02-17T07:38:58.340Z,-1.30
2018-02-17T07:41:27.394Z,-1.30
2018-02-17T07:43:55.633Z,-1.30
2018-02-17T07:46:23.879Z,-1.20
2018-02-17T07:48:52.127Z,-1.30
2018-02-17T07:51:20.850Z,-1.20
2018-02-17T07:53:49.100Z,-1.20
2018-02-17T07:56:17.522Z,-1.10
2018-02-17T07:58:45.813Z,-1.20
2018-02-17T08:01:14.061Z,-1.20
2018-02-17T08:03:43.142Z,-1.20
2018-02-17T08:06:11.496Z,-1.20
2018-02-17T08:08:39.697Z,-1.00
2018-02-17T08:11:07.924Z,-0.90
2018-02-17T08:13:36.125Z,-1.00
2018-02-17T08:16:04.325Z,-1.00
2018-02-17T08:18:32.576Z,-0.90
2018-02-17T08:21:00.793Z,-0.80
2018-02-17T08:23:29.870Z,-0.80
2018-02-17T08:25:58.360Z,-0.80
2018-02-17T08:28:27.341Z,-0.90
2018-02-17T08:30:55.711Z,-0.90
2018-02-17T08:33:24.069Z,-0.90
2018-02-17T08:35:52.330Z,-0.90
2018-02-17T08:38:22.916Z,-0.70
2018-02-17T08:40:51.949Z,-0.60
2018-02-17T08:43:20.967Z,-0.70
2018-02-17T08:45:49.181Z,-0.70
2018-02-17T08:48:18.415Z,-0.80
2018-02-17T08:50:46.688Z,-0.80
2018-02-17T08:53:14.905Z,-0.70
2018-02-17T08:55:43.119Z,-0.80
2018-02-17T08:58:12.080Z,-0.70
2018-02-17T09:00:40.285Z,-0.70
2018-02-17T09:03:09.284Z,-0.60
2018-02-17T09:05:38.266Z,-0.60
2018-02-17T09:08:07.246Z,-0.70
2018-02-17T09:10:48.157Z,-0.60
2018-02-17T09:13:16.532Z,-0.60
2018-02-17T09:15:45.520Z,-0.70
2018-02-17T09:18:13.773Z,-0.70
2018-02-17T09:20:42.745Z,-0.60
2018-02-17T09:23:10.953Z,-0.60
2018-02-17T09:25:39.952Z,-0.60
2018-02-17T09:28:08.221Z,-0.50
2018-02-17T09:30:37.188Z,-0.40
2018-02-17T09:33:05.544Z,-0.40
2018-02-17T09:35:33.766Z,-0.30
2018-02-17T09:38:02.842Z,-0.30
2018-02-17T09:40:31.256Z,-0.30
2018-02-17T09:42:59.467Z,-0.30
2018-02-17T09:45:27.776Z,-0.20
2018-02-17T09:47:56.066Z,-0.20
2018-02-17T09:50:25.552Z,0.10
2018-02-17T09:52:53.774Z,0.10
2018-02-17T09:55:22.032Z,0.30
2018-02-17T09:57:50.997Z,0.40
2018-02-17T10:00:19.191Z,0.40
2018-02-17T10:02:48.177Z,0.70
2018-02-17T10:05:16.370Z,0.60
2018-02-17T10:07:44.565Z,0.60
2018-02-17T10:10:12.793Z,0.50
2018-02-17T10:12:41.140Z,0.70
2018-02-17T10:15:09.365Z,0.70
2018-02-17T10:17:38.961Z,0.70
2018-02-17T10:20:07.716Z,0.70
2018-02-17T10:22:35.924Z,0.80
2018-02-17T10:25:04.184Z,0.70
2018-02-17T10:27:32.385Z,0.80
2018-02-17T10:30:01.380Z,1.00
2018-02-17T10:32:30.477Z,0.60
2018-02-17T10:34:59.492Z,0.50
2018-02-17T10:37:27.794Z,0.50
2018-02-17T10:39:56.073Z,0.70
2018-02-17T10:42:25.544Z,0.60
2018-02-17T10:44:53.852Z,0.70
2018-02-17T10:47:22.865Z,0.70
2018-02-17T10:49:51.093Z,0.70
2018-02-17T10:52:19.297Z,1.00
2018-02-17T10:54:47.532Z,1.10
2018-02-17T10:57:15.817Z,1.40
2018-02-17T10:59:44.015Z,1.70
2018-02-17T11:02:12.424Z,1.60
2018-02-17T11:04:40.637Z,1.60
2018-02-17T11:07:08.920Z,1.80
2018-02-17T11:09:37.142Z,1.80
2018-02-17T11:12:05.919Z,1.90
2018-02-17T11:14:34.099Z,1.90
2018-02-17T11:17:02.313Z,1.90
2018-02-17T11:19:31.481Z,2.00
2018-02-17T11:21:59.675Z,1.90
2018-02-17T11:24:27.991Z,2.00
2018-02-17T11:26:56.182Z,2.10
2018-02-17T11:29:24.373Z,2.30
2018-02-17T11:31:52.645Z,2.30
2018-02-17T11:34:20.837Z,2.00
2018-02-17T11:36:49.195Z,2.00
2018-02-17T11:39:17.417Z,2.10
2018-02-17T11:41:46.377Z,2.10
2018-02-17T11:44:14.570Z,2.10
2018-02-17T11:46:42.842Z,2.20
2018-02-17T11:49:11.075Z,2.20
2018-02-17T11:51:39.285Z,2.00
2018-02-17T11:54:07.525Z,2.00
2018-02-17T11:56:35.772Z,2.10
2018-02-17T11:59:04.757Z,2.10
2018-02-17T12:01:33.869Z,2.00
2018-02-17T12:04:02.196Z,2.00
2018-02-17T12:06:30.389Z,2.10
2018-02-17T12:08:58.703Z,2.20
2018-02-17T12:11:26.972Z,2.30
2018-02-17T12:13:55.247Z,2.40
2018-02-17T12:16:23.476Z,2.40
2018-02-17T12:18:51.688Z,2.20
2018-02-17T12:21:20.742Z,2.50
2018-02-17T12:23:48.968Z,2.50
2018-02-17T12:26:17.929Z,2.50
2018-02-17T12:28:46.176Z,2.50
2018-02-17T12:31:14.393Z,2.30
2018-02-17T12:33:43.413Z,2.50
2018-02-17T12:36:11.601Z,2.50
2018-02-17T12:38:39.811Z,2.60
2018-02-17T12:41:08.057Z,2.70
2018-02-17T12:43:36.252Z,2.70
2018-02-17T12:46:04.521Z,2.70
2018-02-17T12:48:32.932Z,2.70
2018-02-17T12:51:01.125Z,2.70
2018-02-17T12:53:30.165Z,2.80
2018-02-17T12:55:58.364Z,2.80
2018-02-17T12:58:26.553Z,2.80
2018-02-17T13:00:55.669Z,2.80
2018-02-17T13:03:24.759Z,2.80
2018-02-17T13:05:53.717Z,2.80
2018-02-17T13:08:21.942Z,2.80
2018-02-17T13:10:50.153Z,2.90
2018-02-17T13:13:18.391Z,3.00
2018-02-17T13:15:46.657Z,3.00
2018-02-17T13:18:15.609Z,3.00
2018-02-17T13:20:43.874Z,3.00
2018-02-17T13:23:12.913Z,3.20
2018-02-17T13:25:41.912Z,3.20
2018-02-17T13:28:16.750Z,3.20
2018-02-17T13:30:44.993Z,3.20
2018-02-17T13:33:13.259Z,3.40
2018-02-17T13:35:42.841Z,3.50
2018-02-17T13:38:11.079Z,3.50
2018-02-17T13:40:39.293Z,3.50
2018-02-17T13:43:07.533Z,3.30
2018-02-17T13:45:35.732Z,3.20
2018-02-17T13:48:03.922Z,3.30
2018-02-17T13:50:32.161Z,3.40
2018-02-17T13:53:00.354Z,3.40
2018-02-17T13:55:28.632Z,3.40
2018-02-17T13:57:56.897Z,3.40
2018-02-17T14:00:25.273Z,3.40
2018-02-17T14:02:54.297Z,3.30
2018-02-17T14:05:22.510Z,3.30
2018-02-17T14:07:50.761Z,3.30
2018-02-17T14:10:18.985Z,3.40
2018-02-17T14:12:47.680Z,3.40
2018-02-17T14:15:15.886Z,3.40
2018-02-17T14:17:44.134Z,3.40
2018-02-17T14:20:13.392Z,3.30
2018-02-17T14:22:41.582Z,3.40
2018-02-17T14:25:09.827Z,3.40
2018-02-17T14:27:38.069Z,3.40
2018-02-17T14:30:07.005Z,3.30
2018-02-17T14:32:35.232Z,3.30
2018-02-17T14:35:04.326Z,3.40
2018-02-17T14:37:32.638Z,3.40
2018-02-17T14:40:00.841Z,3.40
2018-02-17T14:42:29.160Z,3.40
2018-02-17T14:44:57.412Z,3.40
2018-02-17T14:47:26.402Z,3.40
2018-02-17T14:49:55.376Z,3.40
2018-02-17T14:52:23.578Z,3.40
2018-02-17T14:54:52.583Z,3.40
2018-02-17T14:57:20.860Z,3.40
2018-02-17T14:59:49.087Z,3.40
2018-02-17T15:02:18.079Z,3.40
2018-02-17T15:04:46.504Z,3.40
2018-02-17T15:07:14.712Z,3.40
2018-02-17T15:09:43.030Z,3.30
2018-02-17T15:12:11.264Z,3.30
2018-02-17T15:14:39.488Z,3.30
2018-02-17T15:17:08.443Z,3.30
2018-02-17T15:19:36.654Z,3.30
2018-02-17T15:22:05.727Z,3.30
2018-02-17T15:24:34.122Z,3.20
2018-02-17T15:27:02.394Z,3.20
2018-02-17T15:29:30.693Z,3.30
2018-02-17T15:32:01.693Z,3.20
2018-02-17T15:34:30.537Z,3.20
2018-02-17T15:36:58.733Z,3.20
2018-02-17T15:39:26.964Z,3.10
2018-02-17T15:41:56.089Z,3.10
2018-02-17T15:44:24.941Z,3.10
2018-02-17T15:46:54.041Z,3.00
2018-02-17T15:49:22.301Z,3.00
2018-02-17T15:51:50.517Z,3.00
2018-02-17T15:54:18.737Z,3.00
2018-02-17T15:56:47.197Z,3.00
2018-02-17T15:59:15.529Z,3.00
2018-02-17T16:01:43.729Z,2.90
2018-02-17T16:04:12.805Z,2.80
2018-02-17T16:06:41.813Z,2.80
2018-02-17T16:09:10.089Z,2.80
2018-02-17T16:11:38.610Z,2.80
2018-02-17T16:14:06.829Z,2.70
2018-02-17T16:16:35.925Z,2.70
2018-02-17T16:19:05.363Z,2.70
2018-02-17T16:21:33.978Z,2.70
2018-02-17T16:24:02.347Z,2.70
2018-02-17T16:26:30.609Z,2.60
2018-02-17T16:28:58.913Z,2.60
2018-02-17T16:31:27.164Z,2.60
2018-02-17T16:33:55.724Z,2.60
2018-02-17T16:36:23.935Z,2.60
2018-02-17T16:38:52.148Z,2.50
2018-02-17T16:41:21.122Z,2.50
2018-02-17T16:43:49.418Z,2.50
2018-02-17T16:46:17.638Z,2.50
2018-02-17T16:48:45.874Z,2.40
2018-02-17T16:51:14.859Z,2.40
2018-02-17T16:53:43.138Z,2.40
2018-02-17T16:56:11.441Z,2.40
2018-02-17T16:58:39.645Z,2.40
2018-02-17T17:01:07.945Z,2.30
2018-02-17T17:03:36.309Z,2.40
2018-02-17T17:06:04.591Z,2.40
2018-02-17T17:08:32.833Z,2.40
2018-02-17T17:11:01.141Z,2.30
2018-02-17T17:13:29.343Z,2.30
2018-02-17T17:15:57.587Z,2.30
2018-02-17T17:18:25.865Z,2.30
2018-02-17T17:20:54.096Z,2.30
2018-02-17T17:23:22.311Z,2.40
2018-02-17T17:25:50.546Z,2.30
2018-02-17T17:28:19.569Z,2.30
2018-02-17T17:30:47.791Z,2.30
2018-02-17T17:33:16.094Z,2.30
2018-02-17T17:35:44.404Z,2.30
2018-02-17T17:38:12.672Z,2.30
2018-02-17T17:40:40.964Z,2.30
2018-02-17T17:43:09.208Z,2.30
2018-02-17T17:45:37.637Z,2.30
2018-02-17T17:48:05.944Z,2.20
2018-02-17T17:53:12.452Z,2.20
2018-02-17T17:55:40.740Z,2.20
2018-02-17T17:58:08.999Z,2.30
2018-02-17T18:00:37.259Z,2.30
2018-02-17T18:03:06.370Z,2.30
2018-02-17T18:05:34.769Z,2.20
2018-02-17T18:08:03.094Z,2.30
2018-02-17T18:10:31.275Z,2.30
2018-02-17T18:12:59.501Z,2.30
2018-02-17T18:15:27.780Z,2.30
2018-02-17T18:17:56.169Z,2.30
2018-02-17T18:20:24.371Z,2.30
2018-02-17T18:22:52.678Z,2.30
2018-02-17T18:25:21.719Z,2.30
2018-02-17T18:27:50.681Z,2.30
2018-02-17T18:30:19.040Z,2.30
2018-02-17T18:32:48.348Z,2.30
2018-02-17T18:35:16.530Z,2.30
2018-02-17T18:37:45.035Z,2.30
2018-02-17T18:40:13.356Z,2.30
2018-02-17T18:42:42.313Z,2.20
2018-02-17T18:45:10.726Z,2.20
2018-02-17T18:47:38.973Z,2.20
2018-02-17T18:50:07.305Z,2.10
2018-02-17T18:52:36.399Z,2.00
2018-02-17T18:55:05.413Z,2.00
2018-02-17T18:57:33.696Z,2.00
2018-02-17T19:00:02.005Z,2.00
2018-02-17T19:02:30.246Z,1.90
2018-02-17T19:04:58.593Z,1.90
2018-02-17T19:07:27.793Z,1.90
2018-02-17T19:09:56.746Z,1.90
2018-02-17T19:12:24.959Z,1.90
2018-02-17T19:14:53.980Z,1.90
2018-02-17T19:17:22.281Z,1.90
2018-02-17T19:19:50.525Z,1.90
2018-02-17T19:22:18.744Z,1.90
2018-02-17T19:24:47.016Z,1.80
2018-02-17T19:27:15.276Z,1.80
2018-02-17T19:29:43.535Z,1.70
2018-02-17T19:32:11.732Z,1.70
2018-02-17T19:34:40.134Z,1.70
2018-02-17T19:37:08.373Z,1.70
2018-02-17T19:39:36.565Z,1.70
2018-02-17T19:42:04.946Z,1.70
2018-02-17T19:44:33.298Z,1.60
2018-02-17T19:47:01.537Z,1.70
2018-02-17T19:49:30.631Z,1.70
2018-02-17T19:51:58.948Z,1.70
2018-02-17T19:54:27.129Z,1.70
2018-02-17T19:56:55.434Z,1.70
2018-02-17T19:59:23.816Z,1.70
2018-02-17T20:01:52.250Z,1.70
2018-02-17T20:04:21.253Z,1.70
2018-02-17T20:06:49.590Z,1.70
2018-02-17T20:09:17.754Z,1.70
2018-02-17T20:11:46.114Z,1.70
2018-02-17T20:14:14.901Z,1.70
2018-02-17T20:16:43.181Z,1.70
2018-02-17T20:19:11.492Z,1.70
2018-02-17T20:21:40.003Z,1.70
2018-02-17T20:24:09.202Z,1.60
2018-02-17T20:26:38.613Z,1.60
2018-02-17T20:29:07.665Z,1.60
2018-02-17T20:31:36.673Z,1.60
2018-02-17T20:34:05.090Z,1.60
2018-02-17T20:36:33.558Z,1.60
2018-02-17T20:39:02.550Z,1.60
2018-02-17T20:41:30.805Z,1.60
2018-02-17T20:43:59.268Z,1.60
2018-02-17T20:46:27.516Z,1.60
2018-02-17T20:48:55.717Z,1.60
2018-02-17T20:51:24.092Z,1.60
2018-02-17T20:53:52.349Z,1.50
2018-02-17T20:56:20.550Z,1.60
2018-02-17T20:58:49.581Z,1.50
2018-02-17T21:01:17.809Z,1.50
2018-02-17T21:03:46.785Z,1.40
2018-02-17T21:06:15.021Z,1.40
2018-02-17T21:08:43.400Z,1.40
2018-02-17T21:11:11.644Z,1.30
2018-02-17T21:13:39.985Z,1.30
2018-02-17T21:16:08.189Z,1.30
2018-02-17T21:18:37.185Z,1.20
2018-02-17T21:21:05.483Z,1.20
2018-02-17T21:23:33.738Z,1.20
2018-02-17T21:26:01.905Z,1.20
2018-02-17T21:28:30.173Z,1.20
2018-02-17T21:30:58.392Z,1.10
2018-02-17T21:33:26.591Z,1.10
2018-02-17T21:35:54.950Z,1.10
2018-02-17T21:38:23.916Z,1.10
2018-02-17T21:40:52.913Z,1.00
2018-02-17T21:43:21.969Z,1.00
2018-02-17T21:45:50.209Z,1.00
2018-02-17T21:48:18.409Z,1.00
2018-02-17T21:50:46.633Z,1.00
2018-02-17T21:53:15.165Z,0.90
2018-02-17T21:55:43.443Z,0.90
2018-02-17T21:58:12.453Z,0.90
2018-02-17T22:00:40.657Z,0.90
2018-02-17T22:03:08.985Z,0.90
2018-02-17T22:05:37.302Z,0.90
2018-02-17T22:08:06.357Z,1.00
2018-02-17T22:10:34.573Z,0.90
2018-02-17T22:13:03.665Z,1.00
2018-02-17T22:15:31.941Z,1.10
2018-02-17T22:18:00.924Z,1.10
2018-02-17T22:20:29.158Z,1.10
2018-02-17T22:22:57.365Z,1.10
2018-02-17T22:25:25.557Z,1.10
2018-02-17T22:27:53.831Z,1.10
2018-02-17T22:30:22.025Z,1.10
2018-02-17T22:32:50.997Z,1.10
2018-02-17T22:35:19.239Z,1.10
2018-02-17T22:37:47.466Z,1.10
2018-02-17T22:40:16.503Z,1.00
2018-02-17T22:42:44.746Z,1.00
2018-02-17T22:45:13.007Z,1.00
2018-02-17T22:47:41.198Z,1.00
2018-02-17T22:50:09.473Z,0.90
2018-02-17T22:52:37.675Z,0.90
2018-02-17T22:55:05.869Z,0.90
2018-02-17T22:57:34.124Z,0.90
2018-02-17T23:00:02.465Z,0.90
2018-02-17T23:02:31.421Z,0.80
2018-02-17T23:04:59.652Z,0.80
2018-02-17T23:07:27.918Z,0.80
2018-02-17T23:09:56.873Z,0.70
2018-02-17T23:12:28.333Z,0.60
2018-02-17T23:14:56.536Z,0.60
2018-02-17T23:17:25.489Z,0.50
2018-02-17T23:19:53.710Z,0.50
2018-02-17T23:22:21.919Z,0.50
2018-02-17T23:24:50.157Z,0.50
2018-02-17T23:27:18.377Z,0.40
2018-02-17T23:29:46.593Z,0.40
2018-02-17T23:32:15.654Z,0.40
2018-02-17T23:34:43.894Z,0.40
2018-02-17T23:37:12.148Z,0.40
2018-02-17T23:39:40.465Z,0.30
2018-02-17T23:42:08.754Z,0.30
2018-02-17T23:44:36.941Z,0.30
2018-02-17T23:47:05.272Z,0.30
2018-02-17T23:49:33.577Z,0.20
2018-02-17T23:52:01.835Z,0.30
2018-02-17T23:54:30.880Z,0.20
2018-02-17T23:56:59.239Z,0.20
2018-02-17T23:59:27.534Z,0.20
